Time;durP1;ratioP1;P1;durP2;ratioP2;P2;SDS_P1;SDS_P2;PMS_P1;PMS_P2;Temp;Humidity;BMP_temperature;BMP_pressure;BME280_temperature;BME280_humidity;BME280_pressure;Samples;Min_cycle;Max_cycle;Signal;HPM_P1;HPM_P2
2023/10/28 06:57:35;;;;;;;4.43;1.23;;;;;;;;;;2092608;28;20611;-65
2023/10/28 06:58:37;;;;;;;5.40;1.30;;;;;;;;;;2091005;28;20281;-66
2023/10/28 06:59:39;;;;;;;5.85;1.50;;;;;;;;;;2090642;28;20569;-66
2023/10/28 07:10:40;;;;;;;4.20;1.02;;;;;;;;;;2084628;28;20829;-62
2023/10/28 07:11:41;;;;;;;5.75;1.20;;;;;;;;;;2074228;28;20218;-63
2023/10/28 07:12:42;;;;;;;10.88;1.55;;;;;;;;;;2070004;28;20276;-62
2023/10/28 07:13:44;;;;;;;9.10;1.60;;;;;;;;;;2073288;28;20197;-63
2023/10/28 07:16:15;;;;;;;6.57;1.38;;;;;;;;;;2091015;28;20907;-66
2023/10/28 07:17:17;;;;;;;3.50;1.20;;;;;;;;;;2079246;28;20243;-67
2023/10/28 07:18:18;;;;;;;7.95;1.90;;;;;;;;;;2079599;28;20196;-67
2023/10/28 07:19:19;;;;;;;2.92;1.20;;;;;;;;;;2078578;28;20189;-68
2023/10/28 07:20:21;;;;;;;3.25;1.02;;;;;;;;;;2080265;28;20185;-68
2023/10/28 07:21:22;;;;;;;11.07;1.10;;;;;;;;;;2079405;28;20639;-68
2023/10/28 07:22:25;;;;;;;3.75;1.05;;;;;;;;;;2070627;28;20185;-68
2023/10/28 07:23:26;;;;;;;5.35;0.90;;;;;;;;;;2070832;28;20190;-67
2023/10/28 07:24:28;;;;;;;5.55;1.00;;;;;;;;;;2073676;28;20220;-68
2023/10/28 07:25:29;;;;;;;7.35;1.02;;;;;;;;;;2072568;28;20200;-67
2023/10/28 07:26:30;;;;;;;4.50;0.90;;;;;;;;;;2073746;28;20225;-67
2023/10/28 07:27:32;;;;;;;2.40;0.88;;;;;;;;;;2071572;28;20738;-67
2023/10/28 07:28:34;;;;;;;4.93;1.20;;;;;;;;;;2065073;28;21168;-67
2023/10/28 07:29:35;;;;;;;7.72;1.13;;;;;;;;;;2058001;28;20201;-67
2023/10/28 07:30:43;;;;;;;5.95;1.00;;;;;;;;;;2063579;28;20198;-67
2023/10/28 07:31:44;;;;;;;4.55;1.30;;;;;;;;;;2071954;28;20215;-63
2023/10/28 07:32:46;;;;;;;4.60;1.25;;;;;;;;;;2072983;28;20223;-67
2023/10/28 07:33:47;;;;;;;9.68;1.30;;;;;;;;;;2066391;28;20198;-67
2023/10/28 07:34:48;;;;;;;3.88;1.10;;;;;;;;;;2064904;28;20277;-67
2023/10/28 07:35:56;;;;;;;8.80;1.10;;;;;;;;;;2071889;28;20210;-68
2023/10/28 07:36:58;;;;;;;3.15;0.90;;;;;;;;;;2068621;28;20300;-63
2023/10/28 07:38:00;;;;;;;4.45;1.02;;;;;;;;;;2069602;28;20202;-63
2023/10/28 07:39:03;;;;;;;2.97;0.90;;;;;;;;;;2070002;28;20193;-63
2023/10/28 07:40:05;;;;;;;6.65;1.10;;;;;;;;;;2072860;28;20197;-63
2023/10/28 07:41:06;;;;;;;7.35;1.27;;;;;;;;;;2068581;28;20596;-63
2023/10/28 07:42:08;;;;;;;5.18;1.10;;;;;;;;;;2069356;28;20217;-63
2023/10/28 07:43:12;;;;;;;8.15;1.40;;;;;;;;;;2063328;28;20194;-63
2023/10/28 07:44:14;;;;;;;6.07;0.95;;;;;;;;;;2064193;28;20289;-64
2023/10/28 07:45:15;;;;;;;4.93;1.02;;;;;;;;;;2068692;28;20637;-63
2023/10/28 07:46:17;;;;;;;5.45;1.27;;;;;;;;;;2070396;28;20244;-63
2023/10/28 07:47:18;;;;;;;6.57;1.08;;;;;;;;;;2071017;28;20225;-64
2023/10/28 07:48:20;;;;;;;9.15;1.33;;;;;;;;;;2069892;28;20186;-64
2023/10/28 07:49:21;;;;;;;4.13;1.05;;;;;;;;;;2069418;28;20281;-67
2023/10/28 07:50:22;;;;;;;5.53;1.08;;;;;;;;;;2068951;28;20197;-67
2023/10/28 07:51:24;;;;;;;2.63;1.00;;;;;;;;;;2070953;28;20221;-67
2023/10/28 07:52:26;;;;;;;5.40;0.95;;;;;;;;;;2068441;28;20669;-67
2023/10/28 07:53:28;;;;;;;9.68;1.83;;;;;;;;;;2075800;28;20229;-67
2023/10/28 07:54:30;;;;;;;6.55;1.02;;;;;;;;;;2072600;28;20738;-67
2023/10/28 07:55:31;;;;;;;4.25;1.27;;;;;;;;;;2073055;28;20202;-68
2023/10/28 07:56:33;;;;;;;6.03;1.20;;;;;;;;;;2071800;28;20221;-67
2023/10/28 07:57:34;;;;;;;5.82;1.40;;;;;;;;;;2067988;28;20806;-68
2023/10/28 07:58:36;;;;;;;4.75;1.20;;;;;;;;;;2067070;28;20205;-68
2023/10/28 07:59:38;;;;;;;4.88;1.10;;;;;;;;;;2068562;28;20712;-67
2023/10/28 08:00:40;;;;;;;3.28;0.95;;;;;;;;;;2068202;28;20254;-67
2023/10/28 08:01:41;;;;;;;6.97;1.25;;;;;;;;;;2070529;28;20260;-67
2023/10/28 08:02:44;;;;;;;4.53;1.00;;;;;;;;;;2067119;28;20229;-68
2023/10/28 08:03:45;;;;;;;3.90;1.02;;;;;;;;;;2071355;28;20202;-67
2023/10/28 08:04:47;;;;;;;4.20;1.20;;;;;;;;;;2073747;28;20974;-67
2023/10/28 08:05:48;;;;;;;10.95;1.40;;;;;;;;;;2069212;28;20285;-67
2023/10/28 08:06:50;;;;;;;5.13;1.00;;;;;;;;;;2069479;28;20554;-67
2023/10/28 08:07:55;;;;;;;5.45;1.20;;;;;;;;;;2074251;28;20695;-67
2023/10/28 08:09:00;;;;;;;10.88;1.10;;;;;;;;;;2073440;28;20911;-65
2023/10/28 08:10:01;;;;;;;7.85;1.10;;;;;;;;;;2071326;28;20206;-67
2023/10/28 08:11:03;;;;;;;4.90;1.25;;;;;;;;;;2073936;28;20637;-67
2023/10/28 08:12:04;;;;;;;2.97;1.20;;;;;;;;;;2062125;28;20225;-67
2023/10/28 08:13:06;;;;;;;5.65;1.40;;;;;;;;;;2061471;28;20237;-67
2023/10/28 08:14:07;;;;;;;5.75;1.05;;;;;;;;;;2073236;28;20201;-67
2023/10/28 08:15:09;;;;;;;4.40;1.15;;;;;;;;;;2074848;28;20200;-67
2023/10/28 08:16:12;;;;;;;2.95;1.00;;;;;;;;;;2071300;28;20217;-66
2023/10/28 08:17:13;;;;;;;6.55;1.35;;;;;;;;;;2071587;28;20197;-67
2023/10/28 08:18:15;;;;;;;5.68;1.52;;;;;;;;;;2071998;28;20281;-67
2023/10/28 08:19:17;;;;;;;10.10;1.42;;;;;;;;;;2068974;28;20229;-67
2023/10/28 08:20:18;;;;;;;10.85;1.63;;;;;;;;;;2070220;28;20332;-68
2023/10/28 08:21:20;;;;;;;4.05;1.50;;;;;;;;;;2067376;28;20202;-67
2023/10/28 08:22:21;;;;;;;5.85;1.52;;;;;;;;;;2068306;28;20309;-67
2023/10/28 08:23:22;;;;;;;4.57;1.20;;;;;;;;;;2071364;28;20201;-67
2023/10/28 08:24:24;;;;;;;4.47;1.25;;;;;;;;;;2073256;28;20669;-67
2023/10/28 08:25:25;;;;;;;5.50;1.17;;;;;;;;;;2073748;28;20183;-67
2023/10/28 08:26:26;;;;;;;5.95;1.25;;;;;;;;;;2069429;28;20629;-68
2023/10/28 08:27:28;;;;;;;6.32;1.60;;;;;;;;;;2064220;28;20198;-67
2023/10/28 08:28:29;;;;;;;10.27;1.95;;;;;;;;;;2062442;28;20191;-67
2023/10/28 08:29:32;;;;;;;9.63;1.55;;;;;;;;;;2057343;28;20191;-67
2023/10/28 08:30:35;;;;;;;12.25;1.65;;;;;;;;;;2055948;28;20226;-67
2023/10/28 08:31:36;;;;;;;4.25;1.60;;;;;;;;;;2065345;28;20636;-67
2023/10/28 08:32:38;;;;;;;4.13;1.52;;;;;;;;;;2067371;28;20607;-67
2023/10/28 08:33:41;;;;;;;11.20;1.48;;;;;;;;;;2069615;28;20197;-67
2023/10/28 08:34:43;;;;;;;7.93;1.88;;;;;;;;;;2064894;28;20190;-67
2023/10/28 08:35:44;;;;;;;4.30;1.20;;;;;;;;;;2064812;28;20211;-67
2023/10/28 08:36:45;;;;;;;5.68;1.90;;;;;;;;;;2054767;28;20863;-67
2023/10/28 08:37:47;;;;;;;7.60;2.05;;;;;;;;;;2057852;28;20315;-67
2023/10/28 08:38:49;;;;;;;2.95;0.88;;;;;;;;;;2061863;28;20273;-67
2023/10/28 08:39:52;;;;;;;3.92;1.00;;;;;;;;;;2059945;28;20710;-67
2023/10/28 08:40:53;;;;;;;4.90;1.45;;;;;;;;;;2066106;28;20202;-67
2023/10/28 08:41:56;;;;;;;4.85;0.98;;;;;;;;;;2066531;28;20222;-67
2023/10/28 08:42:58;;;;;;;8.60;1.40;;;;;;;;;;2067695;28;20260;-67
2023/10/28 08:44:03;;;;;;;8.25;1.00;;;;;;;;;;2059072;28;20252;-66
2023/10/28 08:45:07;;;;;;;4.50;1.10;;;;;;;;;;2060481;28;20207;-67
2023/10/28 08:46:08;;;;;;;4.63;1.02;;;;;;;;;;2062056;28;20241;-67
2023/10/28 08:47:10;;;;;;;4.28;1.10;;;;;;;;;;2065121;28;20267;-67
2023/10/28 08:48:20;;;;;;;4.47;1.25;;;;;;;;;;2068700;28;20208;-67
2023/10/28 08:49:35;;;;;;;5.55;1.23;;;;;;;;;;2067925;28;20202;-63
2023/10/28 08:50:38;;;;;;;5.00;1.55;;;;;;;;;;2065614;28;20197;-63
2023/10/28 08:51:42;;;;;;;6.13;1.00;;;;;;;;;;2064533;28;20226;-62
2023/10/28 08:52:45;;;;;;;8.27;1.38;;;;;;;;;;2067869;28;20194;-67
2023/10/28 08:53:50;;;;;;;4.38;1.02;;;;;;;;;;2067860;28;20661;-67
2023/10/28 08:54:52;;;;;;;4.97;1.20;;;;;;;;;;2067252;28;20201;-67
2023/10/28 08:55:53;;;;;;;8.45;1.45;;;;;;;;;;2065346;28;20527;-67
2023/10/28 08:56:56;;;;;;;5.40;1.10;;;;;;;;;;2062276;28;20335;-67
2023/10/28 08:57:57;;;;;;;4.50;1.17;;;;;;;;;;2062670;28;20195;-67
2023/10/28 08:58:59;;;;;;;9.23;1.15;;;;;;;;;;2061059;28;20194;-66
2023/10/28 09:00:00;;;;;;;8.18;1.50;;;;;;;;;;2066644;28;20210;-67
2023/10/28 09:01:02;;;;;;;4.80;1.23;;;;;;;;;;2068535;28;20206;-66
2023/10/28 09:02:08;;;;;;;5.60;1.40;;;;;;;;;;2066507;28;20222;-67
2023/10/28 09:03:10;;;;;;;4.18;1.10;;;;;;;;;;2065678;28;20199;-67
2023/10/28 09:04:12;;;;;;;3.65;1.10;;;;;;;;;;2065382;28;20348;-67
2023/10/28 09:05:14;;;;;;;5.22;1.10;;;;;;;;;;2063477;28;20206;-67
2023/10/28 09:06:16;;;;;;;3.10;0.98;;;;;;;;;;2062446;28;20195;-67
2023/10/28 09:07:17;;;;;;;2.63;1.05;;;;;;;;;;2065317;28;20697;-67
2023/10/28 09:08:19;;;;;;;2.88;0.90;;;;;;;;;;2066165;28;20186;-67
2023/10/28 09:09:21;;;;;;;3.35;1.33;;;;;;;;;;2065016;28;20217;-67
2023/10/28 09:10:23;;;;;;;7.28;1.17;;;;;;;;;;2065592;28;20194;-67
2023/10/28 09:11:25;;;;;;;3.92;1.00;;;;;;;;;;2065719;28;20198;-67
2023/10/28 09:12:26;;;;;;;8.85;1.80;;;;;;;;;;2064829;28;20195;-67
2023/10/28 09:13:28;;;;;;;6.13;1.13;;;;;;;;;;2069232;28;20198;-67
2023/10/28 09:14:29;;;;;;;3.38;1.25;;;;;;;;;;2062621;28;20630;-67
2023/10/28 09:15:31;;;;;;;8.63;1.05;;;;;;;;;;2061435;28;20654;-67
2023/10/28 09:16:33;;;;;;;4.90;0.98;;;;;;;;;;2064737;28;20224;-67
2023/10/28 09:17:35;;;;;;;6.00;1.67;;;;;;;;;;2068147;28;20201;-67
2023/10/28 09:18:40;;;;;;;6.80;1.50;;;;;;;;;;2067100;28;20633;-67
2023/10/28 09:19:42;;;;;;;5.90;1.38;;;;;;;;;;2065244;28;20833;-66
2023/10/28 09:20:43;;;;;;;5.93;1.30;;;;;;;;;;2064957;28;20206;-67
2023/10/28 09:21:44;;;;;;;8.05;1.80;;;;;;;;;;2062055;28;20219;-67
2023/10/28 09:22:48;;;;;;;6.25;1.20;;;;;;;;;;2060874;28;20278;-66
2023/10/28 09:23:51;;;;;;;5.00;1.05;;;;;;;;;;2061548;28;20187;-66
2023/10/28 09:24:55;;;;;;;8.80;1.20;;;;;;;;;;2066676;28;20300;-67
2023/10/28 09:25:56;;;;;;;5.82;1.20;;;;;;;;;;2065802;28;20865;-67
2023/10/28 09:26:58;;;;;;;8.20;2.88;;;;;;;;;;2062853;28;20590;-67
2023/10/28 09:27:59;;;;;;;5.60;1.45;;;;;;;;;;2066569;28;20230;-67
2023/10/28 09:29:01;;;;;;;6.90;1.52;;;;;;;;;;2067720;28;20253;-67
2023/10/28 09:30:06;;;;;;;5.32;1.20;;;;;;;;;;2064606;28;20340;-66
2023/10/28 09:31:08;;;;;;;6.30;1.42;;;;;;;;;;2061858;28;20218;-66
2023/10/28 09:32:10;;;;;;;5.10;1.10;;;;;;;;;;2060908;28;20203;-67
2023/10/28 09:33:12;;;;;;;5.07;1.20;;;;;;;;;;2064336;28;20263;-66
2023/10/28 09:34:16;;;;;;;5.18;1.40;;;;;;;;;;2064015;28;20195;-67
2023/10/28 09:35:18;;;;;;;7.40;1.25;;;;;;;;;;2062326;28;20239;-67
2023/10/28 09:36:20;;;;;;;8.45;1.60;;;;;;;;;;2061512;28;20286;-66
2023/10/28 09:37:23;;;;;;;11.32;1.33;;;;;;;;;;2066723;28;20682;-67
2023/10/28 09:38:24;;;;;;;4.15;0.98;;;;;;;;;;2067161;28;20205;-67
2023/10/28 09:39:26;;;;;;;5.35;1.35;;;;;;;;;;2063596;28;20226;-67
2023/10/28 09:40:28;;;;;;;8.25;1.40;;;;;;;;;;2064935;28;20664;-67
2023/10/28 09:41:31;;;;;;;6.47;1.67;;;;;;;;;;2064802;28;20532;-67
2023/10/28 09:42:36;;;;;;;10.18;1.30;;;;;;;;;;2063670;28;20204;-67
2023/10/28 09:43:40;;;;;;;6.47;1.02;;;;;;;;;;2065545;28;20200;-67
2023/10/28 09:44:44;;;;;;;9.55;1.33;;;;;;;;;;2065446;28;20431;-67
2023/10/28 09:45:49;;;;;;;4.20;0.90;;;;;;;;;;2066536;28;20288;-66
2023/10/28 09:46:55;;;;;;;7.30;1.25;;;;;;;;;;2062134;28;20222;-66
2023/10/28 09:47:57;;;;;;;7.75;1.00;;;;;;;;;;2064394;28;20274;-67
2023/10/28 09:49:03;;;;;;;5.50;1.33;;;;;;;;;;2066507;28;20194;-67
2023/10/28 09:50:07;;;;;;;6.30;1.23;;;;;;;;;;2062253;28;20186;-67
2023/10/28 09:51:09;;;;;;;6.78;1.10;;;;;;;;;;2067568;28;20658;-67
2023/10/28 09:52:12;;;;;;;4.85;1.05;;;;;;;;;;2068185;28;20613;-67
2023/10/28 09:53:19;;;;;;;6.13;1.27;;;;;;;;;;2066947;28;20596;-66
2023/10/28 09:54:24;;;;;;;3.97;1.00;;;;;;;;;;2064807;28;20195;-67
2023/10/28 09:55:27;;;;;;;4.20;1.10;;;;;;;;;;2064955;28;20633;-67
2023/10/28 09:56:33;;;;;;;6.03;1.35;;;;;;;;;;2066210;28;20199;-67
2023/10/28 09:57:35;;;;;;;7.85;1.20;;;;;;;;;;2064999;28;20230;-67
2023/10/28 09:58:38;;;;;;;9.27;1.60;;;;;;;;;;2062563;28;20189;-67
2023/10/28 09:59:44;;;;;;;3.80;1.00;;;;;;;;;;2061997;28;20187;-68
2023/10/28 10:00:48;;;;;;;9.57;1.63;;;;;;;;;;2063449;28;20212;-67
2023/10/28 10:02:01;;;;;;;10.05;1.77;;;;;;;;;;2063465;28;20237;-67
2023/10/28 10:03:03;;;;;;;6.85;1.58;;;;;;;;;;2066110;28;20205;-67
2023/10/28 10:04:08;;;;;;;8.63;1.55;;;;;;;;;;2066262;28;20608;-67
2023/10/28 10:05:17;;;;;;;5.70;1.45;;;;;;;;;;2064480;28;20650;-67
2023/10/28 10:06:19;;;;;;;4.75;1.35;;;;;;;;;;2064218;28;20557;-67
2023/10/28 10:07:21;;;;;;;5.53;1.25;;;;;;;;;;2063658;28;20198;-67
2023/10/28 10:08:22;;;;;;;9.73;1.40;;;;;;;;;;2063497;28;20307;-67
2023/10/28 10:09:24;;;;;;;7.57;1.45;;;;;;;;;;2067544;28;20194;-66
2023/10/28 10:10:25;;;;;;;4.47;1.30;;;;;;;;;;2063756;28;20209;-67
2023/10/28 10:11:27;;;;;;;6.20;1.50;;;;;;;;;;2061026;28;20195;-67
2023/10/28 10:12:29;;;;;;;8.82;1.40;;;;;;;;;;2064614;28;20284;-67
2023/10/28 10:13:40;;;;;;;9.20;1.00;;;;;;;;;;2065246;28;20708;-67
2023/10/28 10:14:45;;;;;;;5.68;1.55;;;;;;;;;;2064162;28;20202;-67
2023/10/28 10:16:05;;;;;;;7.25;1.40;;;;;;;;;;2063657;28;20230;-66
2023/10/28 10:17:30;;;;;;;5.75;1.30;;;;;;;;;;2061080;28;20329;-66
2023/10/28 10:18:32;;;;;;;3.40;0.90;;;;;;;;;;2057257;28;20452;-66
2023/10/28 10:19:37;;;;;;;11.25;2.42;;;;;;;;;;2063796;28;20221;-66
2023/10/28 10:20:43;;;;;;;10.32;0.95;;;;;;;;;;2063472;28;20213;-66
2023/10/28 10:21:51;;;;;;;4.05;1.20;;;;;;;;;;2060870;28;20222;-67
2023/10/28 10:22:58;;;;;;;4.85;1.30;;;;;;;;;;2063392;28;20190;-67
2023/10/28 10:24:06;;;;;;;4.68;1.40;;;;;;;;;;2063048;28;20800;-66
2023/10/28 10:25:09;;;;;;;3.92;1.05;;;;;;;;;;2062329;28;20779;-67
2023/10/28 10:26:26;;;;;;;7.15;1.38;;;;;;;;;;2062023;28;20550;-66
2023/10/28 10:27:32;;;;;;;6.68;1.20;;;;;;;;;;2061030;28;20214;-67
2023/10/28 10:28:43;;;;;;;5.55;1.20;;;;;;;;;;2062302;28;20199;-67
2023/10/28 10:29:46;;;;;;;9.05;1.50;;;;;;;;;;2062781;28;20585;-67
2023/10/28 10:30:48;;;;;;;4.28;1.17;;;;;;;;;;2065128;28;20201;-66
2023/10/28 10:31:51;;;;;;;11.80;1.45;;;;;;;;;;2067501;28;20226;-66
2023/10/28 10:32:54;;;;;;;9.43;1.38;;;;;;;;;;2066704;28;20226;-66
2023/10/28 10:34:07;;;;;;;33.55;1.73;;;;;;;;;;2065201;28;20344;-67
2023/10/28 10:35:10;;;;;;;9.02;1.98;;;;;;;;;;2056754;28;20266;-67
2023/10/28 10:36:16;;;;;;;4.25;1.48;;;;;;;;;;2058515;28;20234;-66
2023/10/28 10:37:22;;;;;;;6.75;1.35;;;;;;;;;;2067928;28;20209;-66
2023/10/28 10:38:27;;;;;;;8.55;1.50;;;;;;;;;;2060700;28;20198;-67
2023/10/28 10:39:28;;;;;;;5.45;1.50;;;;;;;;;;2066692;28;20329;-66
2023/10/28 10:40:31;;;;;;;6.30;1.10;;;;;;;;;;2064762;28;20744;-66
2023/10/28 10:41:32;;;;;;;5.55;1.75;;;;;;;;;;2063646;28;20672;-66
2023/10/28 10:42:34;;;;;;;9.77;1.73;;;;;;;;;;2064043;28;20209;-66
2023/10/28 10:43:38;;;;;;;8.18;1.55;;;;;;;;;;2064637;28;20226;-66
2023/10/28 10:44:39;;;;;;;6.75;1.67;;;;;;;;;;2066292;28;20198;-67
2023/10/28 10:45:40;;;;;;;3.70;1.10;;;;;;;;;;2064649;28;20193;-67
2023/10/28 10:46:42;;;;;;;6.82;1.23;;;;;;;;;;2061243;28;20220;-67
2023/10/28 10:47:43;;;;;;;3.72;1.10;;;;;;;;;;2060693;28;20197;-66
2023/10/28 10:48:46;;;;;;;7.07;1.90;;;;;;;;;;2062337;28;20761;-67
2023/10/28 10:49:49;;;;;;;5.57;1.55;;;;;;;;;;2064583;28;20197;-67
2023/10/28 10:50:51;;;;;;;6.80;1.23;;;;;;;;;;2063529;28;20532;-66
2023/10/28 10:51:52;;;;;;;8.32;1.33;;;;;;;;;;2064127;28;20225;-66
2023/10/28 10:52:56;;;;;;;6.10;1.40;;;;;;;;;;2065793;28;20323;-66
2023/10/28 10:53:57;;;;;;;13.65;2.53;;;;;;;;;;2065967;28;20600;-66
2023/10/28 10:55:00;;;;;;;4.22;1.48;;;;;;;;;;2063076;28;20205;-67
2023/10/28 10:56:02;;;;;;;4.40;1.60;;;;;;;;;;2062520;28;20598;-66
2023/10/28 10:57:03;;;;;;;9.90;2.20;;;;;;;;;;2062117;28;20688;-67
2023/10/28 10:58:05;;;;;;;14.27;2.15;;;;;;;;;;2063479;28;20206;-66
2023/10/28 10:59:07;;;;;;;8.63;1.77;;;;;;;;;;2066988;28;20193;-67
2023/10/28 11:00:12;;;;;;;7.25;1.20;;;;;;;;;;2063400;28;20622;-66
2023/10/28 11:01:13;;;;;;;14.45;2.13;;;;;;;;;;2059571;28;20190;-66
2023/10/28 11:02:15;;;;;;;6.13;1.63;;;;;;;;;;2063075;28;20675;-66
2023/10/28 11:03:16;;;;;;;12.45;1.63;;;;;;;;;;2067070;28;20199;-67
2023/10/28 11:04:18;;;;;;;8.77;1.10;;;;;;;;;;2064822;28;20185;-66
2023/10/28 11:05:20;;;;;;;12.32;1.70;;;;;;;;;;2066282;28;20240;-66
2023/10/28 11:06:21;;;;;;;7.70;1.88;;;;;;;;;;2063315;28;20201;-66
2023/10/28 11:07:24;;;;;;;3.25;1.15;;;;;;;;;;2065010;28;20205;-66
2023/10/28 11:08:26;;;;;;;9.38;1.70;;;;;;;;;;2058010;28;20599;-66
2023/10/28 11:09:28;;;;;;;12.50;2.00;;;;;;;;;;2065875;28;20209;-66
2023/10/28 11:10:29;;;;;;;7.88;1.67;;;;;;;;;;2063829;28;20715;-66
2023/10/28 11:11:35;;;;;;;3.58;1.10;;;;;;;;;;2064932;28;20245;-66
2023/10/28 11:12:37;;;;;;;9.90;1.55;;;;;;;;;;2066803;28;20557;-66
2023/10/28 11:13:39;;;;;;;8.65;1.50;;;;;;;;;;2065866;28;20194;-66
2023/10/28 11:14:41;;;;;;;14.43;2.10;;;;;;;;;;2064093;28;20281;-67
2023/10/28 11:15:43;;;;;;;7.43;1.48;;;;;;;;;;2063412;28;20230;-66
2023/10/28 11:16:44;;;;;;;9.63;2.42;;;;;;;;;;2063503;28;20240;-66
2023/10/28 11:17:45;;;;;;;14.60;2.40;;;;;;;;;;2066188;28;20190;-66
2023/10/28 11:18:47;;;;;;;9.38;2.30;;;;;;;;;;2067341;28;20178;-66
2023/10/28 11:19:49;;;;;;;9.23;1.90;;;;;;;;;;2064362;28;20658;-66
2023/10/28 11:20:51;;;;;;;10.55;1.33;;;;;;;;;;2064298;28;20189;-66
2023/10/28 11:21:54;;;;;;;8.25;1.95;;;;;;;;;;2063920;28;20220;-66
2023/10/28 11:22:55;;;;;;;4.63;1.50;;;;;;;;;;2064444;28;20422;-66
2023/10/28 11:23:57;;;;;;;8.27;1.48;;;;;;;;;;2065995;28;20698;-66
2023/10/28 11:25:00;;;;;;;9.75;1.85;;;;;;;;;;2066741;28;20204;-66
2023/10/28 11:26:02;;;;;;;6.00;1.45;;;;;;;;;;2062536;28;20197;-66
2023/10/28 11:27:04;;;;;;;13.20;1.90;;;;;;;;;;2063619;28;20241;-66
2023/10/28 11:28:06;;;;;;;10.43;1.60;;;;;;;;;;2062313;28;20224;-66
2023/10/28 11:29:09;;;;;;;14.57;1.85;;;;;;;;;;2065052;28;20198;-66
2023/10/28 11:30:11;;;;;;;9.02;2.17;;;;;;;;;;2066285;28;20196;-66
2023/10/28 11:31:12;;;;;;;10.70;1.95;;;;;;;;;;2063984;28;20203;-66
2023/10/28 11:32:14;;;;;;;5.47;1.70;;;;;;;;;;2067739;28;20232;-66
2023/10/28 11:33:15;;;;;;;6.63;1.88;;;;;;;;;;2063333;28;20740;-66
2023/10/28 11:34:17;;;;;;;4.47;1.50;;;;;;;;;;2063377;28;20196;-66
2023/10/28 11:35:19;;;;;;;5.90;1.98;;;;;;;;;;2065880;28;20198;-66
2023/10/28 11:36:21;;;;;;;8.32;1.88;;;;;;;;;;2065966;28;20638;-67
2023/10/28 11:37:23;;;;;;;7.15;2.05;;;;;;;;;;2067013;28;20201;-66
2023/10/28 11:38:24;;;;;;;7.35;1.67;;;;;;;;;;2066573;28;20730;-66
2023/10/28 11:50:05;;;;;;;9.38;1.75;;;;;;;;;;2082749;28;20580;-65
2023/10/28 11:56:06;;;;;;;5.22;1.73;;;;;;;;;;2101000;27;20571;-66
2023/10/28 12:20:37;;;;;;;13.43;3.25;;;;;;;10.97;83.70;95336.22;2101941;27;20691;-65
2023/10/28 12:21:40;;;;;;;15.32;2.40;;;;;;;11.08;82.98;95334.56;2083065;28;20249;-66
2023/10/28 12:25:15;;;;;;;11.77;2.30;;;;;;;11.27;82.12;95323.69;2092838;27;20571;-66
2023/10/28 12:26:17;;;;;;;15.50;3.40;;;;;;;11.37;82.72;95333.50;2087048;28;20354;-66
2023/10/28 12:27:20;;;;;;;12.70;3.03;;;;;;;11.46;81.83;95318.97;2078739;28;20238;-66
2023/10/28 12:28:22;;;;;;;10.10;2.65;;;;;;;11.54;82.77;95320.13;2076317;28;20193;-66
2023/10/28 12:32:51;;;;;;;13.68;3.00;;;;;;;11.57;82.57;95327.75;2083168;28;20554;-66
2023/10/28 12:37:14;;;;;;;8.05;1.70;;;;;;;11.54;81.75;95317.50;2110601;27;20567;-66
2023/10/28 12:41:16;;;;;;;6.22;1.55;;;;;;;11.63;78.66;95296.88;2083847;28;20572;-65
2023/10/28 12:42:17;;;;;;;9.70;2.08;;;;;;;11.72;78.74;95277.94;2078677;28;20577;-66
2023/10/28 12:43:19;;;;;;;5.82;1.52;;;;;;;11.85;78.91;95281.34;2070432;28;20285;-66
2023/10/28 12:44:21;;;;;;;10.05;2.53;;;;;;;11.90;79.27;95284.47;2078522;28;20190;-67
2023/10/28 12:45:23;;;;;;;12.50;2.55;;;;;;;11.92;78.61;95286.97;2075462;28;20555;-65
2023/10/28 12:46:24;;;;;;;12.95;2.53;;;;;;;11.99;77.68;95283.00;2075905;28;20189;-65
2023/10/28 12:50:22;;;;;;;11.30;1.92;;;;;;;12.03;77.74;95281.81;2094713;27;20569;-65
2023/10/28 12:51:23;;;;;;;8.63;1.98;;;;;;;12.03;77.32;95281.81;2088099;28;20207;-65
2023/10/28 12:52:25;;;;;;;13.63;2.30;;;;;;;12.02;76.84;95276.72;2078515;28;20700;-65
2023/10/28 12:53:29;;;;;;;8.13;3.25;;;;;;;12.06;77.13;95281.63;2078373;28;20193;-66
2023/10/28 12:54:32;;;;;;;7.38;2.08;;;;;;;12.13;77.32;95284.63;2078297;28;20228;-66
2023/10/28 12:55:34;;;;;;;6.78;1.48;;;;;;;12.13;77.13;95289.03;2078240;28;20291;-66
2023/10/28 12:56:36;;;;;;;7.93;1.98;;;;;;;12.16;76.25;95294.84;2067335;28;20220;-66
2023/10/28 12:57:37;;;;;;;18.63;2.30;;;;;;;12.19;75.77;95289.41;2077546;28;20906;-66
2023/10/28 13:02:37;;;;;;;7.90;1.98;;;;;;;12.10;76.49;95295.31;2085216;28;20584;-65
2023/10/28 13:54:17;;;;;;;20.50;2.60;;;;;;;11.14;86.17;95328.06;2082310;28;20574;-63
2023/10/28 13:55:19;;;;;;;12.75;4.68;;;;;;;11.22;86.96;95327.56;2077585;28;20651;-64
2023/10/28 13:56:20;;;;;;;15.70;3.03;;;;;;;11.39;85.72;95329.84;2077228;28;20618;-64
2023/10/28 13:57:22;;;;;;;10.25;2.30;;;;;;;11.47;84.89;95331.94;2069610;28;20205;-64
2023/10/28 13:58:24;;;;;;;12.40;2.67;;;;;;;11.52;84.35;95322.00;2068939;28;20200;-65
2023/10/28 13:59:26;;;;;;;9.63;2.42;;;;;;;11.69;83.22;95323.41;2070243;28;20684;-64
2023/10/28 14:00:27;;;;;;;17.73;2.83;;;;;;;11.91;85.13;95329.78;2069795;28;20672;-64
2023/10/28 14:01:29;;;;;;;8.02;2.30;;;;;;;12.12;84.91;95330.03;2068768;28;20194;-64
2023/10/28 14:02:31;;;;;;;11.93;2.72;;;;;;;12.13;84.69;95331.72;2070551;28;20197;-67
2023/10/28 14:03:33;;;;;;;10.27;2.30;;;;;;;12.12;84.82;95326.59;2070351;28;20206;-67
2023/10/28 14:04:35;;;;;;;11.20;2.33;;;;;;;12.16;84.47;95333.28;2069073;28;20229;-68
2023/10/28 14:05:36;;;;;;;7.80;1.38;;;;;;;12.07;82.41;95326.91;2070863;28;20603;-67
2023/10/28 14:06:38;;;;;;;7.03;1.90;;;;;;;12.27;82.75;95330.72;2071648;28;20227;-67
2023/10/28 14:07:40;;;;;;;9.38;2.80;;;;;;;12.35;82.82;95330.16;2071807;28;20704;-67
2023/10/28 14:08:41;;;;;;;11.60;2.40;;;;;;;12.31;83.62;95328.72;2071106;28;20193;-67
2023/10/28 14:09:43;;;;;;;5.82;1.95;;;;;;;12.46;82.99;95332.84;2072831;28;20206;-67
2023/10/28 14:10:46;;;;;;;10.80;2.22;;;;;;;12.24;81.68;95334.41;2073374;28;20206;-67
2023/10/28 14:11:47;;;;;;;11.48;2.35;;;;;;;12.15;81.94;95328.97;2071285;28;20218;-67
2023/10/28 14:12:50;;;;;;;7.78;2.30;;;;;;;12.09;82.34;95328.47;2070987;28;20208;-67
2023/10/28 14:13:51;;;;;;;9.63;2.08;;;;;;;12.04;82.47;95327.16;2070998;28;20209;-67
2023/10/28 14:14:52;;;;;;;16.98;5.32;;;;;;;12.00;83.88;95331.75;2072148;28;20560;-67
2023/10/28 14:15:54;;;;;;;14.63;5.13;;;;;;;11.97;84.16;95329.34;2070287;28;20671;-67
